Portada
METAR-TAF:

METAR-TAF

Aeroports :

Aeroport Internacional de Xangai-Pudong

Xangai-Pudong, Xina

latitud: 31-07N, longitud: 121-46E, altitud: 4 m

Observació

L'informe es va fer fa 35 minuts, a les 19:30 UTC
Vent 8 kt del Sud
Temperatura 20°C
Humitat 88%
Pressió 1008 hPa
Visibilitat 10 km o més
sense núvols per sota de 1500 mi sense presència de cumulonimbus.

METAR: ZSPD 011930Z 18004MPS CAVOK 20/18 Q1008 NOSIG

Hora: 04:05 (20:05 UTC)

Pronòstic

L'informe es va fer fa 5 hores i 0 minuts, a les 15:05 UTC
Pronòstic vàlid del 01 a les 18 UTC al 02 a les 18 UTC
Vent 8 kt del Sud
Visibilitat: 6000 m
Cel ennuvolat a una alçada de 1600 ft

TAF: ZSPD 011505Z 0118/0218 17004MPS 6000 BKN016 TX29/0206Z TN20/0121Z

Observacions i pronòstics meteorològics de més de 4000 aeroports (METAR i TAF).

Les estacions disponibles són els punts grocs i vermells al mapa.

Posi el ratolí al punt desitjat per veure el nom de l'estació.

Feu clic per veure les observacions i els pronòstics meteorològics.

Per canviar el mapa: feu clic els botons verds amb una creu de color negre per apropar; al botó verd amb un guió per allunyar la imatge; o en les fletxes verdes per a mapes adjacents.


METAR-TAF: